Time;durP1;ratioP1;P1;durP2;ratioP2;P2;SDS_P1;SDS_P2;PMS_P1;PMS_P2;Temp;Humidity;BMP_temperature;BMP_pressure;BME280_temperature;BME280_humidity;BME280_pressure;Samples;Min_cycle;Max_cycle;Signal;HPM_P1;HPM_P2
2022/04/20 00:01:08;;;;;;;10.15;6.75;;;;;;;4.18;98.63;99709.09;6288344;28;20043;-83
2022/04/20 00:04:11;;;;;;;12.73;7.38;;;;;;;4.13;98.88;99718.78;6321922;28;20385;-81
2022/04/20 00:07:11;;;;;;;11.38;7.45;;;;;;;4.08;99.33;99707.78;6304823;28;20043;-82
2022/04/20 00:10:12;;;;;;;9.50;6.68;;;;;;;4.17;99.35;99716.00;6304836;28;20377;-84
2022/04/20 00:13:13;;;;;;;11.55;7.00;;;;;;;4.21;98.16;99709.00;6304562;28;20048;-82
2022/04/20 00:16:15;;;;;;;10.57;7.90;;;;;;;4.17;98.54;99708.28;6304219;28;20068;-81
2022/04/20 00:19:16;;;;;;;11.43;7.63;;;;;;;4.20;98.49;99708.16;6304690;28;20044;-84
2022/04/20 00:22:17;;;;;;;17.73;7.57;;;;;;;4.04;100.00;99697.59;6304518;28;20047;-84
2022/04/20 00:25:18;;;;;;;10.07;7.45;;;;;;;3.99;100.00;99707.25;6322439;28;20295;-84
2022/04/20 00:28:18;;;;;;;9.88;6.95;;;;;;;4.05;100.00;99713.91;6270995;28;20465;-84
2022/04/20 00:31:19;;;;;;;11.52;7.65;;;;;;;4.10;99.78;99703.41;6304349;28;20450;-83
2022/04/20 00:34:20;;;;;;;9.27;7.05;;;;;;;4.17;99.71;99705.69;6304306;28;20047;-81
2022/04/20 00:37:21;;;;;;;11.43;7.72;;;;;;;4.07;100.00;99706.13;6321099;28;20044;-81
2022/04/20 00:40:22;;;;;;;13.50;7.55;;;;;;;4.02;100.00;99711.47;6320828;28;20123;-81
2022/04/20 00:43:23;;;;;;;10.40;7.70;;;;;;;4.02;100.00;99701.97;6303988;28;20040;-82
2022/04/20 00:46:25;;;;;;;11.40;7.63;;;;;;;3.92;100.00;99710.16;6303930;28;20044;-82
2022/04/20 00:49:26;;;;;;;12.65;8.48;;;;;;;3.93;100.00;99714.41;6320878;28;20042;-84
2022/04/20 00:52:27;;;;;;;10.77;7.85;;;;;;;3.81;100.00;99714.00;6320586;28;20052;-81
2022/04/20 00:55:28;;;;;;;11.77;8.10;;;;;;;3.67;100.00;99715.44;6287151;28;20052;-82
2022/04/20 00:58:28;;;;;;;11.27;7.95;;;;;;;3.68;100.00;99715.34;6303424;28;20044;-81
2022/04/20 01:01:30;;;;;;;14.75;8.05;;;;;;;3.66;100.00;99718.88;6286905;28;20036;-81
2022/04/20 01:04:31;;;;;;;13.25;8.95;;;;;;;3.68;100.00;99711.94;6287159;28;20036;-84
2022/04/20 01:07:36;;;;;;;12.82;8.00;;;;;;;3.64;100.00;99703.47;6303277;28;20127;-81
2022/04/20 01:10:37;;;;;;;12.00;8.60;;;;;;;3.60;100.00;99704.47;6320157;28;20036;-81
2022/04/20 01:13:38;;;;;;;13.90;8.43;;;;;;;3.60;100.00;99704.47;6302970;28;20055;-81
2022/04/20 01:16:39;;;;;;;12.15;8.02;;;;;;;3.50;100.00;99711.75;6286687;28;20056;-82
2022/04/20 01:19:40;;;;;;;11.40;8.02;;;;;;;3.41;100.00;99710.31;6320000;28;20552;-84
2022/04/20 01:22:42;;;;;;;11.02;7.90;;;;;;;3.33;100.00;99714.09;6319883;28;20531;-84
2022/04/20 01:25:42;;;;;;;12.13;8.57;;;;;;;3.37;100.00;99719.06;6285701;28;20052;-84
2022/04/20 01:28:45;;;;;;;13.13;8.00;;;;;;;3.33;100.00;99714.91;6302922;28;20047;-84
2022/04/20 01:31:46;;;;;;;12.05;8.55;;;;;;;3.33;100.00;99722.66;6319796;28;20047;-84
2022/04/20 01:34:47;;;;;;;14.85;9.90;;;;;;;3.35;100.00;99720.03;6302849;28;20494;-84
2022/04/20 01:37:49;;;;;;;17.48;8.98;;;;;;;3.16;100.00;99712.97;6319512;28;20048;-85
2022/04/20 01:40:50;;;;;;;16.90;9.07;;;;;;;3.19;100.00;99706.84;6319548;28;20267;-85
2022/04/20 01:43:50;;;;;;;16.13;9.75;;;;;;;3.10;100.00;99708.03;6302667;28;20377;-82
2022/04/20 01:46:51;;;;;;;13.13;9.32;;;;;;;3.20;100.00;99708.53;6320565;28;20094;-81
2022/04/20 01:49:52;;;;;;;13.23;9.48;;;;;;;3.05;100.00;99706.50;6302776;28;20123;-82
2022/04/20 01:52:53;;;;;;;15.85;10.15;;;;;;;3.06;100.00;99701.28;6319158;28;20048;-84
2022/04/20 01:55:54;;;;;;;14.95;9.55;;;;;;;2.99;100.00;99705.84;6302589;28;20377;-84
2022/04/20 01:58:55;;;;;;;12.50;9.52;;;;;;;2.98;100.00;99714.44;6302556;28;20131;-82
2022/04/20 02:05:15;;;;;;;14.70;10.43;;;;;;;3.01;100.00;99698.06;6319402;28;20122;-85
2022/04/20 02:08:19;;;;;;;12.07;9.55;;;;;;;2.94;100.00;99706.88;6269018;28;20093;-81
2022/04/20 02:11:20;;;;;;;12.68;9.20;;;;;;;2.88;100.00;99700.19;6302511;28;20036;-85
2022/04/20 02:14:21;;;;;;;13.88;10.23;;;;;;;2.91;100.00;99694.13;6319068;28;20040;-85
2022/04/20 02:17:22;;;;;;;15.35;9.75;;;;;;;2.88;100.00;99692.47;6285636;28;20047;-82
2022/04/20 02:20:23;;;;;;;13.05;9.38;;;;;;;2.90;100.00;99698.41;6302230;28;20036;-82
2022/04/20 02:23:26;;;;;;;13.90;9.43;;;;;;;2.93;100.00;99695.75;6285743;28;20497;-82
2022/04/20 02:26:27;;;;;;;;;;;;;;;2.92;100.00;99700.94;6319304;28;20047;-81
2022/04/20 02:29:28;;;;;;;14.25;9.18;;;;;;;2.82;100.00;99701.28;6319021;28;20018;-85
2022/04/20 02:32:28;;;;;;;15.30;9.90;;;;;;;2.68;100.00;99700.03;6318863;28;20484;-81
2022/04/20 02:35:30;;;;;;;13.07;9.68;;;;;;;2.67;100.00;99701.78;6285670;28;20041;-81
2022/04/20 02:38:31;;;;;;;16.08;10.30;;;;;;;2.70;100.00;99708.56;6322140;28;20121;-84
2022/04/20 02:41:35;;;;;;;13.60;9.95;;;;;;;2.61;100.00;99699.41;6323646;28;20500;-81
2022/04/20 02:44:36;;;;;;;13.57;10.25;;;;;;;2.51;100.00;99698.03;6307257;28;20040;-81
2022/04/20 02:47:37;;;;;;;16.42;9.70;;;;;;;2.53;100.00;99706.56;6290120;28;20048;-84
2022/04/20 02:50:38;;;;;;;14.27;10.32;;;;;;;2.45;100.00;99704.28;6323553;28;20089;-81
2022/04/20 02:53:39;;;;;;;16.60;9.90;;;;;;;2.31;100.00;99703.88;6306440;28;20480;-85
2022/04/20 02:56:40;;;;;;;19.30;9.70;;;;;;;2.22;100.00;99708.44;6306510;28;20036;-81
2022/04/20 02:59:40;;;;;;;14.65;10.18;;;;;;;2.20;100.00;99714.50;6306291;28;20040;-85
2022/04/20 03:02:41;;;;;;;15.85;10.80;;;;;;;2.16;100.00;99718.06;6323360;28;20048;-81
2022/04/20 03:05:42;;;;;;;15.27;11.10;;;;;;;2.21;100.00;99719.59;6306164;28;20040;-81
2022/04/20 03:08:43;;;;;;;15.82;10.90;;;;;;;2.14;100.00;99718.13;6306452;28;20101;-81
2022/04/20 03:11:44;;;;;;;14.15;10.77;;;;;;;2.08;100.00;99718.31;6322904;28;20050;-80
2022/04/20 03:14:45;;;;;;;15.95;10.93;;;;;;;2.11;100.00;99722.53;6305980;28;20403;-84
2022/04/20 03:17:45;;;;;;;16.00;10.65;;;;;;;2.05;100.00;99715.00;6305823;28;20136;-85
2022/04/20 03:20:46;;;;;;;20.10;11.80;;;;;;;1.99;100.00;99719.44;6305856;28;20101;-81
2022/04/20 03:23:47;;;;;;;15.95;11.73;;;;;;;1.94;100.00;99725.63;6289230;28;20036;-81
2022/04/20 03:26:48;;;;;;;18.92;11.55;;;;;;;1.95;100.00;99724.72;6322507;28;20539;-81
2022/04/20 03:29:49;;;;;;;16.83;11.27;;;;;;;1.87;100.00;99722.38;6305629;28;20566;-81
2022/04/20 03:32:50;;;;;;;14.90;10.43;;;;;;;1.90;100.00;99734.34;6288828;28;20586;-81
2022/04/20 03:35:50;;;;;;;15.38;10.73;;;;;;;1.85;100.00;99737.03;6288850;28;20051;-85
2022/04/20 03:38:51;;;;;;;21.80;10.73;;;;;;;1.77;100.00;99726.13;6323560;28;20051;-82
2022/04/20 03:41:52;;;;;;;17.38;11.65;;;;;;;1.76;100.00;99720.16;6272190;28;20457;-85
2022/04/20 03:44:53;;;;;;;17.40;11.85;;;;;;;1.75;100.00;99731.34;6288691;28;20048;-85
2022/04/20 03:47:54;;;;;;;16.60;11.65;;;;;;;1.74;100.00;99727.06;6305123;28;20045;-85
2022/04/20 03:50:54;;;;;;;18.98;11.95;;;;;;;1.84;100.00;99726.81;6322624;28;20036;-84
2022/04/20 03:53:55;;;;;;;19.15;12.43;;;;;;;1.92;100.00;99725.66;6321932;28;20040;-81
2022/04/20 03:57:07;;;;;;;30.25;17.50;;;;;;;1.93;100.00;99718.78;6271842;28;20059;-81
2022/04/20 04:00:08;;;;;;;35.97;17.77;;;;;;;1.96;100.00;99731.56;6306704;28;20085;-84
2022/04/20 04:03:09;;;;;;;28.77;19.20;;;;;;;1.96;100.00;99729.00;6305099;28;20043;-82
2022/04/20 04:06:11;;;;;;;28.75;18.35;;;;;;;1.99;100.00;99732.31;6304785;28;20040;-81
2022/04/20 04:09:11;;;;;;;36.15;18.98;;;;;;;1.95;100.00;99719.59;6304761;28;20046;-81
2022/04/20 04:12:12;;;;;;;32.92;18.50;;;;;;;2.00;100.00;99715.16;6304604;28;20460;-85
2022/04/20 04:15:13;;;;;;;21.80;14.93;;;;;;;2.17;100.00;99732.63;6304648;28;20047;-85
2022/04/20 04:18:14;;;;;;;19.27;13.02;;;;;;;2.15;100.00;99737.00;6304800;28;20071;-84
2022/04/20 04:21:16;;;;;;;23.50;14.07;;;;;;;2.18;100.00;99747.16;6304537;28;20704;-85
2022/04/20 04:24:35;;;;;;;22.38;14.60;;;;;;;2.21;100.00;99744.50;6304799;28;20044;-84
2022/04/20 04:27:35;;;;;;;23.02;15.40;;;;;;;2.32;100.00;99745.00;6306826;28;20046;-81
2022/04/20 04:30:36;;;;;;;18.10;13.00;;;;;;;2.42;100.00;99745.56;6271103;28;20048;-81
2022/04/20 04:33:37;;;;;;;19.20;11.98;;;;;;;2.48;100.00;99747.94;6304211;28;20050;-84
2022/04/20 04:36:38;;;;;;;19.33;12.65;;;;;;;2.67;100.00;99749.91;6287544;28;20044;-81
2022/04/20 04:39:39;;;;;;;15.75;11.63;;;;;;;2.68;100.00;99741.25;6303880;28;20472;-85
2022/04/20 04:42:40;;;;;;;17.23;11.73;;;;;;;2.83;100.00;99753.66;6270920;28;20052;-84
2022/04/20 04:49:00;;;;;;;20.65;12.10;;;;;;;3.03;100.00;99742.66;6306140;28;20445;-81
2022/04/20 04:52:01;;;;;;;16.42;10.38;;;;;;;3.07;100.00;99746.81;6287333;28;20040;-85
2022/04/20 04:55:02;;;;;;;15.70;10.50;;;;;;;3.13;100.00;99754.34;6303777;28;20036;-85
2022/04/20 04:58:03;;;;;;;21.42;11.30;;;;;;;3.25;100.00;99755.63;6320858;28;20177;-83
2022/04/20 05:01:04;;;;;;;18.33;11.85;;;;;;;3.40;100.00;99757.66;6319304;28;20503;-83
2022/04/20 05:04:05;;;;;;;14.68;9.85;;;;;;;3.47;100.00;99752.28;6320364;28;20072;-82
2022/04/20 05:07:06;;;;;;;14.13;8.80;;;;;;;3.63;98.06;99759.38;6320130;28;20530;-82
2022/04/20 05:10:08;;;;;;;13.65;8.52;;;;;;;3.75;96.13;99760.69;6286981;28;20048;-82
2022/04/20 05:13:09;;;;;;;12.38;8.30;;;;;;;3.90;95.41;99756.66;6286713;28;20104;-84
2022/04/20 05:16:11;;;;;;;14.15;9.20;;;;;;;4.02;95.25;99766.53;6321463;28;20443;-83
2022/04/20 05:19:12;;;;;;;14.37;8.67;;;;;;;4.17;94.12;99765.09;6319990;28;20044;-84
2022/04/20 05:22:13;;;;;;;12.45;7.93;;;;;;;4.30;93.45;99767.19;6320247;28;20048;-84
2022/04/20 05:25:14;;;;;;;10.95;8.00;;;;;;;4.40;90.09;99769.31;6320351;28;20093;-83
2022/04/20 05:28:15;;;;;;;13.00;6.85;;;;;;;4.53;88.45;99763.66;6319892;28;20047;-83
2022/04/20 05:31:15;;;;;;;13.43;7.68;;;;;;;4.63;86.66;99771.00;6286429;28;20051;-82
2022/04/20 05:34:16;;;;;;;10.32;6.90;;;;;;;4.75;87.21;99784.31;6303331;28;20040;-84
2022/04/20 05:43:56;;;;;;;10.15;6.95;;;;;;;5.18;85.15;99777.34;6319800;28;20083;-84
2022/04/20 05:46:57;;;;;;;9.18;6.80;;;;;;;5.34;83.78;99780.09;6269205;28;20048;-83
2022/04/20 05:49:57;;;;;;;13.55;6.97;;;;;;;5.48;84.23;99784.66;6302557;28;20465;-83
2022/04/20 05:52:59;;;;;;;10.68;6.68;;;;;;;5.61;82.78;99780.63;6319221;28;20036;-84
2022/04/20 05:55:59;;;;;;;7.60;6.30;;;;;;;5.77;79.42;99779.03;6302424;28;20039;-83
2022/04/20 05:59:01;;;;;;;11.77;6.10;;;;;;;6.03;76.08;99775.28;6269849;28;20063;-83
2022/04/20 06:02:01;;;;;;;9.02;5.70;;;;;;;6.21;73.61;99783.91;6286661;28;20060;-84
2022/04/20 06:05:03;;;;;;;11.20;6.38;;;;;;;6.39;72.08;99778.78;6286689;28;20048;-83
2022/04/20 06:08:04;;;;;;;10.00;5.70;;;;;;;6.62;73.91;99785.44;6303316;28;20134;-83
2022/04/20 06:11:05;;;;;;;10.02;6.50;;;;;;;6.86;70.34;99770.44;6287385;28;20401;-84
2022/04/20 06:14:06;;;;;;;12.13;5.65;;;;;;;6.96;68.03;99778.56;6290278;28;20052;-84
2022/04/20 06:17:07;;;;;;;14.27;6.18;;;;;;;7.14;67.65;99769.00;6290518;28;20048;-83
2022/04/20 06:20:08;;;;;;;11.57;6.07;;;;;;;7.22;65.35;99778.06;6307630;28;20075;-83
2022/04/20 06:23:09;;;;;;;15.23;7.55;;;;;;;7.40;67.84;99771.09;6291480;28;20146;-84
2022/04/20 06:26:11;;;;;;;11.63;6.57;;;;;;;7.66;65.32;99774.91;6291453;28;20108;-83
2022/04/20 06:29:12;;;;;;;9.77;5.75;;;;;;;7.74;64.91;99774.53;6291582;28;20433;-86
2022/04/20 06:32:13;;;;;;;9.38;5.63;;;;;;;7.95;63.04;99779.44;6324140;28;20043;-87
2022/04/20 06:35:14;;;;;;;8.07;6.00;;;;;;;8.06;62.56;99788.34;6324339;28;20494;-84
2022/04/20 06:38:15;;;;;;;8.90;5.63;;;;;;;8.08;63.11;99775.28;6291027;28;20055;-82
2022/04/20 06:41:17;;;;;;;10.57;5.43;;;;;;;8.26;61.08;99770.81;6307302;28;20047;-83
2022/04/20 06:44:19;;;;;;;7.72;5.32;;;;;;;8.32;61.30;99775.69;6290798;28;20419;-83
2022/04/20 06:47:19;;;;;;;8.02;5.30;;;;;;;8.32;60.99;99774.81;6306992;28;20072;-83
2022/04/20 06:50:20;;;;;;;10.13;5.40;;;;;;;8.63;62.40;99764.41;6324187;28;20036;-83
2022/04/20 07:00:00;;;;;;;7.57;5.35;;;;;;;9.09;56.38;99760.88;6322952;28;20435;-83
2022/04/20 07:03:02;;;;;;;12.30;5.90;;;;;;;9.25;55.46;99753.00;6306810;28;20043;-83
2022/04/20 07:06:04;;;;;;;9.85;5.28;;;;;;;9.19;56.26;99763.78;6323133;28;20127;-82
2022/04/20 07:09:04;;;;;;;10.75;5.72;;;;;;;9.07;55.11;99758.34;6306562;28;20571;-82
2022/04/20 07:12:05;;;;;;;8.05;5.43;;;;;;;9.31;55.98;99757.81;6289818;28;20700;-83
2022/04/20 07:15:07;;;;;;;13.70;5.82;;;;;;;9.30;55.01;99750.94;6273328;28;20105;-83
2022/04/20 07:18:09;;;;;;;12.13;5.20;;;;;;;9.54;54.14;99752.97;6290163;28;20048;-84
2022/04/20 07:21:09;;;;;;;8.32;5.10;;;;;;;9.62;54.93;99759.38;6306722;28;20056;-82
2022/04/20 07:24:10;;;;;;;7.85;4.85;;;;;;;10.07;54.00;99754.84;6305048;28;20495;-81
2022/04/20 07:27:11;;;;;;;7.63;5.38;;;;;;;10.18;51.04;99753.31;6323976;28;20036;-85
2022/04/20 07:30:13;;;;;;;7.97;5.10;;;;;;;10.28;51.39;99750.00;6290511;28;20142;-83
2022/04/20 07:33:14;;;;;;;9.40;5.27;;;;;;;10.37;48.78;99759.03;6306739;28;20499;-84
2022/04/20 07:36:15;;;;;;;7.95;5.22;;;;;;;10.43;49.71;99758.63;6290063;28;20126;-82
2022/04/20 07:39:16;;;;;;;7.78;4.82;;;;;;;10.28;49.25;99736.97;6289441;28;20393;-84
2022/04/20 07:42:20;;;;;;;8.85;4.75;;;;;;;9.77;49.80;99756.75;6323252;28;20040;-82
2022/04/20 07:45:26;;;;;;;8.48;4.72;;;;;;;10.33;51.55;99746.28;6305641;28;20515;-84
2022/04/20 07:48:26;;;;;;;16.20;4.97;;;;;;;10.79;50.27;99736.28;6323352;28;20127;-83
2022/04/20 07:51:27;;;;;;;10.32;5.50;;;;;;;10.72;47.79;99737.63;6305366;28;20093;-83
2022/04/20 07:54:28;;;;;;;10.02;5.40;;;;;;;10.27;48.38;99743.13;6305277;28;20542;-84
2022/04/20 07:57:29;;;;;;;11.25;5.10;;;;;;;10.46;48.65;99736.75;6288293;28;20052;-82
2022/04/20 08:00:30;;;;;;;7.15;5.00;;;;;;;10.60;47.32;99748.88;6304719;28;20051;-82
2022/04/20 08:03:31;;;;;;;7.53;4.60;;;;;;;10.78;47.50;99731.16;6271688;28;20048;-83
2022/04/20 08:06:33;;;;;;;8.70;4.97;;;;;;;10.56;46.23;99739.56;6288135;28;20048;-82
2022/04/20 08:09:34;;;;;;;7.18;4.22;;;;;;;10.37;48.24;99719.91;6288326;28;20048;-83
2022/04/20 08:12:37;;;;;;;5.80;4.10;;;;;;;11.12;45.63;99734.94;6305143;28;20423;-82
2022/04/20 08:15:38;;;;;;;7.47;4.47;;;;;;;11.40;44.33;99719.97;6322307;28;20055;-83
2022/04/20 08:18:39;;;;;;;8.05;3.97;;;;;;;10.99;43.91;99721.03;6288061;28;20515;-82
2022/04/20 08:21:39;;;;;;;9.40;5.03;;;;;;;11.14;45.71;99713.94;6322167;28;20044;-83
2022/04/20 08:24:45;;;;;;;9.07;4.85;;;;;;;11.52;45.59;99723.50;6271326;28;20102;-81
2022/04/20 08:27:46;;;;;;;6.75;4.13;;;;;;;11.35;42.33;99722.91;6288480;28;20134;-82
2022/04/20 08:30:49;;;;;;;5.57;3.63;;;;;;;11.92;41.98;99708.47;6304230;28;20077;-82
2022/04/20 08:33:50;;;;;;;7.60;4.20;;;;;;;12.38;42.14;99717.38;6287523;28;20296;-83
2022/04/20 08:36:51;;;;;;;6.95;4.70;;;;;;;11.97;41.93;99705.53;6304835;28;20051;-84
2022/04/20 08:39:52;;;;;;;8.02;5.20;;;;;;;12.21;40.96;99703.75;6288744;28;20048;-85
2022/04/20 08:42:54;;;;;;;8.07;5.47;;;;;;;12.47;43.41;99700.97;6305271;28;20048;-83
2022/04/20 08:45:58;;;;;;;10.68;4.75;;;;;;;12.48;41.10;99703.50;6303676;28;20052;-83
2022/04/20 08:48:59;;;;;;;8.25;4.38;;;;;;;11.88;41.44;99688.69;6303753;28;20054;-83
2022/04/20 08:55:21;;;;;;;8.68;4.93;;;;;;;12.54;40.12;99693.50;6321913;28;20058;-82
2022/04/20 08:58:22;;;;;;;8.77;4.95;;;;;;;12.77;40.15;99695.22;6304308;28;20082;-84
2022/04/20 09:01:26;;;;;;;9.13;5.28;;;;;;;13.20;39.66;99697.19;6304737;28;20097;-82
2022/04/20 09:04:26;;;;;;;8.35;4.60;;;;;;;12.35;39.95;99691.41;6304327;28;20105;-82
2022/04/20 09:07:27;;;;;;;7.60;4.70;;;;;;;11.84;41.87;99693.31;6321190;28;20036;-82
2022/04/20 09:10:28;;;;;;;10.40;4.47;;;;;;;12.66;42.49;99693.44;6303765;28;20116;-83
2022/04/20 09:13:35;;;;;;;7.85;4.93;;;;;;;13.21;39.90;99692.75;6287133;28;20420;-81
2022/04/20 09:16:36;;;;;;;7.70;4.88;;;;;;;13.29;40.75;99693.03;6322716;28;20044;-84
2022/04/20 09:19:38;;;;;;;8.18;4.90;;;;;;;13.35;38.64;99691.72;6271635;28;20454;-84
2022/04/20 09:22:39;;;;;;;8.52;4.63;;;;;;;13.64;38.11;99692.03;6287719;28;20063;-81
2022/04/20 09:25:46;;;;;;;6.90;4.80;;;;;;;13.69;38.09;99690.72;6320899;28;20056;-85
2022/04/20 09:29:07;;;;;;;8.88;4.63;;;;;;;14.06;36.37;99692.16;6321539;28;20047;-83
2022/04/20 09:32:08;;;;;;;7.93;4.60;;;;;;;13.50;37.62;99693.97;6319444;28;20052;-82
2022/04/20 09:35:15;;;;;;;7.70;4.72;;;;;;;12.31;40.45;99693.41;6302819;28;20047;-81
2022/04/20 09:38:21;;;;;;;4.63;3.85;;;;;;;11.85;39.23;99688.91;6320145;28;20097;-83
2022/04/20 09:41:21;;;;;;;6.90;4.43;;;;;;;11.97;39.58;99698.53;6303628;28;20480;-84
2022/04/20 09:44:22;;;;;;;5.90;4.28;;;;;;;12.04;40.60;99686.66;6303328;28;20045;-83
2022/04/20 09:50:44;;;;;;;6.65;4.25;;;;;;;11.84;40.84;99689.84;6320639;28;20048;-83
2022/04/20 09:53:49;;;;;;;5.57;4.13;;;;;;;11.57;39.70;99690.03;6303215;28;20040;-83
2022/04/20 09:57:11;;;;;;;8.55;4.40;;;;;;;11.66;40.37;99685.00;6288016;28;20047;-82
2022/04/20 10:00:13;;;;;;;6.68;4.20;;;;;;;11.56;39.67;99693.63;6302752;28;20044;-83
2022/04/20 10:03:27;;;;;;;7.40;4.05;;;;;;;11.48;39.05;99688.94;6320909;28;20536;-81
2022/04/20 10:06:29;;;;;;;7.13;3.72;;;;;;;11.57;38.74;99696.13;6269758;28;20058;-84
2022/04/20 10:09:30;;;;;;;6.22;3.88;;;;;;;11.70;38.16;99685.63;6319065;28;20059;-83
2022/04/20 10:12:35;;;;;;;7.18;3.70;;;;;;;12.07;39.91;99699.53;6303620;28;20567;-81
2022/04/20 10:18:57;;;;;;;8.88;4.10;;;;;;;11.84;39.17;99698.53;6320223;28;20044;-82
2022/04/20 10:22:01;;;;;;;5.85;4.18;;;;;;;12.17;39.12;99693.59;6302272;28;20059;-83
2022/04/20 10:25:02;;;;;;;5.78;3.50;;;;;;;12.36;39.50;99693.09;6285709;28;20416;-81
2022/04/20 10:28:17;;;;;;;7.57;4.30;;;;;;;12.43;38.42;99692.50;6286721;28;20043;-83
2022/04/20 10:31:29;;;;;;;11.07;4.90;;;;;;;12.22;39.28;99684.47;6318997;28;20500;-82
2022/04/20 10:34:31;;;;;;;8.10;3.90;;;;;;;11.94;39.33;99690.06;6318767;28;20044;-82
2022/04/20 10:37:32;;;;;;;7.65;3.80;;;;;;;12.84;37.25;99687.72;6286371;28;20036;-84
2022/04/20 10:40:33;;;;;;;10.90;3.50;;;;;;;13.49;35.74;99696.72;6321155;28;20048;-82
2022/04/20 10:43:44;;;;;;;6.77;4.20;;;;;;;13.85;37.96;99687.69;6318803;28;20040;-82
2022/04/20 10:47:04;;;;;;;6.10;3.83;;;;;;;14.71;36.17;99680.66;6318917;28;20321;-80
2022/04/20 10:50:20;;;;;;;8.10;3.88;;;;;;;15.46;34.47;99683.91;6301951;28;20078;-82
2022/04/20 10:53:27;;;;;;;4.78;3.30;;;;;;;14.37;34.72;99668.66;6319766;28;20044;-82
2022/04/20 10:56:28;;;;;;;10.13;3.92;;;;;;;13.50;36.47;99674.78;6302330;28;20036;-81
2022/04/20 10:59:29;;;;;;;6.15;3.72;;;;;;;13.38;36.72;99676.56;6288502;28;20408;-82
2022/04/20 11:02:47;;;;;;;8.70;4.03;;;;;;;13.81;36.49;99670.53;6323318;28;20044;-80
2022/04/20 11:05:54;;;;;;;10.23;3.92;;;;;;;13.96;36.28;99678.97;6323641;28;20090;-80
2022/04/20 11:09:00;;;;;;;5.85;4.20;;;;;;;13.97;35.53;99670.13;6324274;28;20036;-79
2022/04/20 11:19:12;;;;;;;7.15;3.35;;;;;;;16.15;32.25;99663.81;6313437;28;20585;-82
2022/04/20 11:22:13;;;;;;;9.32;3.45;;;;;;;15.39;31.77;99655.66;6324298;28;20036;-81
2022/04/20 11:25:14;;;;;;;3.70;3.20;;;;;;;14.65;31.35;99662.78;6305730;28;20474;-82
2022/04/20 11:28:15;;;;;;;5.45;2.97;;;;;;;14.88;34.86;99660.00;6322431;28;20048;-80
2022/04/20 11:31:16;;;;;;;6.97;3.38;;;;;;;15.03;32.22;99655.25;6289491;28;20166;-80
2022/04/20 11:34:22;;;;;;;4.82;3.00;;;;;;;14.14;31.37;99653.00;6305618;28;20048;-80
2022/04/20 11:37:24;;;;;;;4.55;3.05;;;;;;;14.56;32.61;99654.84;6323407;28;20048;-84
2022/04/20 11:40:25;;;;;;;3.42;3.13;;;;;;;14.60;32.51;99656.25;6322061;28;20447;-83
2022/04/20 11:43:26;;;;;;;7.57;3.05;;;;;;;14.93;32.70;99643.84;6305324;28;20055;-83
2022/04/20 11:46:27;;;;;;;5.25;2.83;;;;;;;15.40;32.65;99652.03;6272371;28;20401;-81
2022/04/20 11:49:32;;;;;;;10.30;3.22;;;;;;;16.02;32.20;99642.19;6322240;28;20043;-81
2022/04/20 11:52:33;;;;;;;4.40;3.17;;;;;;;16.24;30.03;99644.53;6323475;28;20048;-82
2022/04/20 11:55:44;;;;;;;5.88;3.10;;;;;;;16.04;29.05;99635.00;6288792;28;20503;-80
2022/04/20 11:58:53;;;;;;;4.57;3.13;;;;;;;15.69;30.70;99631.09;6321856;28;20097;-80
2022/04/20 12:01:55;;;;;;;7.72;3.15;;;;;;;14.92;31.41;99632.53;6321897;28;20459;-77
2022/04/20 12:05:10;;;;;;;7.00;3.20;;;;;;;14.29;32.83;99630.78;6321710;28;20047;-81
2022/04/20 12:08:11;;;;;;;3.58;2.70;;;;;;;13.82;33.48;99632.06;6305463;28;20074;-81
2022/04/20 12:11:12;;;;;;;8.38;3.45;;;;;;;13.65;35.06;99630.78;6320802;28;20307;-84
2022/04/20 12:14:14;;;;;;;7.60;3.80;;;;;;;13.77;36.27;99628.97;6304598;28;20549;-81
2022/04/20 12:17:20;;;;;;;6.30;3.20;;;;;;;13.70;35.43;99621.59;6304865;28;20054;-84
2022/04/20 12:20:25;;;;;;;5.43;3.30;;;;;;;14.14;33.90;99628.56;6321241;28;20048;-83
2022/04/20 12:23:35;;;;;;;6.22;3.50;;;;;;;14.45;34.99;99624.22;6322458;28;20044;-84
2022/04/20 12:26:41;;;;;;;4.75;2.95;;;;;;;14.34;33.78;99626.94;6304292;28;20083;-80
2022/04/20 12:29:45;;;;;;;6.35;2.80;;;;;;;13.85;34.36;99616.06;6322405;28;20044;-80
2022/04/20 12:32:46;;;;;;;7.32;3.20;;;;;;;13.96;34.60;99615.19;6320854;28;20117;-81
2022/04/20 12:36:08;;;;;;;7.15;2.58;;;;;;;14.28;34.46;99623.84;6287405;28;20521;-84
2022/04/20 12:39:32;;;;;;;4.00;2.73;;;;;;;14.12;33.76;99620.81;6304009;28;20055;-85
2022/04/20 12:42:33;;;;;;;4.60;3.28;;;;;;;14.13;33.06;99619.88;6320872;28;20109;-85
2022/04/20 12:45:34;;;;;;;4.90;2.78;;;;;;;14.09;33.79;99613.22;6320627;28;20040;-81
2022/04/20 12:48:42;;;;;;;4.40;2.80;;;;;;;13.42;33.96;99606.41;6321148;28;20036;-82
2022/04/20 12:51:43;;;;;;;4.53;2.58;;;;;;;13.60;34.22;99610.19;6321040;28;20210;-80
2022/04/20 12:55:10;;;;;;;3.63;2.60;;;;;;;13.79;34.88;99622.63;6270737;28;20051;-84
2022/04/20 13:04:53;;;;;;;5.97;3.20;;;;;;;13.36;35.72;99615.59;6292120;28;20044;-84
2022/04/20 13:07:54;;;;;;;4.28;3.13;;;;;;;12.87;36.53;99620.25;6270251;28;20561;-86
2022/04/20 13:10:56;;;;;;;5.87;3.00;;;;;;;12.94;37.31;99614.56;6286666;28;20082;-86
2022/04/20 13:13:57;;;;;;;8.02;3.15;;;;;;;12.66;36.66;99619.28;6286440;28;20423;-82
2022/04/20 13:16:58;;;;;;;4.70;2.75;;;;;;;12.50;36.79;99611.78;6321298;28;20039;-82
2022/04/20 13:19:59;;;;;;;5.95;2.75;;;;;;;12.81;36.96;99614.69;6269948;28;20468;-83
2022/04/20 13:22:59;;;;;;;6.90;3.33;;;;;;;12.57;37.33;99609.53;6285890;28;20059;-82
2022/04/20 13:29:22;;;;;;;4.93;2.95;;;;;;;12.46;36.80;99607.75;6320234;28;20045;-81
2022/04/20 13:32:23;;;;;;;10.73;3.28;;;;;;;12.72;36.64;99607.53;6320016;28;20407;-82
2022/04/20 13:35:24;;;;;;;11.77;4.93;;;;;;;13.42;36.56;99602.00;6302916;28;20059;-81
2022/04/20 13:38:25;;;;;;;5.43;3.05;;;;;;;13.96;35.28;99604.69;6286187;28;20446;-82
2022/04/20 13:41:26;;;;;;;4.22;2.88;;;;;;;13.64;34.53;99593.25;6319943;28;20040;-82
2022/04/20 13:44:28;;;;;;;5.72;2.72;;;;;;;13.50;35.04;99588.28;6302751;28;20051;-82
2022/04/20 13:47:29;;;;;;;5.50;2.63;;;;;;;13.20;34.07;99600.25;6302794;28;20048;-81
2022/04/20 13:50:31;;;;;;;4.47;3.20;;;;;;;13.45;32.81;99606.19;6302566;28;20347;-82
2022/04/20 13:53:32;;;;;;;4.40;2.30;;;;;;;13.24;33.16;99608.69;6320744;28;20123;-82
2022/04/20 13:56:33;;;;;;;4.90;2.60;;;;;;;13.57;34.14;99609.59;6302437;28;20478;-81
2022/04/20 13:59:34;;;;;;;4.55;2.90;;;;;;;13.79;33.21;99596.41;6319454;28;20044;-82
2022/04/20 14:02:36;;;;;;;7.83;3.10;;;;;;;14.03;34.13;99605.88;6285870;28;20113;-81
2022/04/20 14:05:37;;;;;;;7.15;3.25;;;;;;;14.65;33.94;99605.03;6302441;28;20488;-80
2022/04/20 14:08:38;;;;;;;8.07;3.47;;;;;;;14.63;32.75;99609.56;6302192;28;20040;-82
2022/04/20 14:11:39;;;;;;;6.32;3.90;;;;;;;14.18;34.37;99614.25;6319236;28;20404;-84
2022/04/20 14:14:40;;;;;;;6.43;2.60;;;;;;;13.90;34.58;99616.53;6319510;28;20039;-80
2022/04/20 14:17:43;;;;;;;6.82;4.70;;;;;;;13.70;35.61;99623.38;6302145;28;20127;-78
2022/04/20 14:20:44;;;;;;;7.78;4.53;;;;;;;13.63;36.06;99614.34;6318844;28;20056;-80
2022/04/20 14:23:46;;;;;;;9.45;3.30;;;;;;;13.57;36.52;99617.47;6318989;28;20097;-78
2022/04/20 14:33:28;;;;;;;6.25;3.70;;;;;;;13.22;36.31;99618.44;6321865;28;20419;-83
2022/04/20 14:36:29;;;;;;;5.88;4.00;;;;;;;13.29;36.21;99622.28;6290647;28;20059;-79
2022/04/20 14:39:31;;;;;;;3.60;2.57;;;;;;;13.36;36.76;99617.38;6324448;28;20040;-81
2022/04/20 14:42:32;;;;;;;9.27;5.47;;;;;;;13.57;35.46;99614.84;6290896;28;20101;-81
2022/04/20 14:45:33;;;;;;;10.75;4.85;;;;;;;13.26;36.05;99618.09;6290942;28;20404;-79
2022/04/20 14:48:34;;;;;;;7.68;4.20;;;;;;;13.22;36.62;99619.31;6290654;28;20055;-81
2022/04/20 14:51:35;;;;;;;6.57;3.95;;;;;;;13.36;36.67;99626.06;6273611;28;20052;-87
2022/04/20 14:54:36;;;;;;;4.50;2.25;;;;;;;13.46;36.53;99611.28;6306555;28;20047;-82
2022/04/20 14:57:37;;;;;;;3.33;2.58;;;;;;;13.50;36.08;99610.09;6306312;28;20040;-80
2022/04/20 15:00:39;;;;;;;6.53;3.80;;;;;;;13.54;35.96;99625.59;6324201;28;20071;-78
2022/04/20 15:03:40;;;;;;;10.93;3.30;;;;;;;13.52;36.73;99617.00;6289367;28;20090;-85
2022/04/20 15:06:41;;;;;;;4.85;3.10;;;;;;;13.79;36.75;99606.91;6324101;28;20093;-79